createdAt,value
2023-01-08T00:01:06.092Z,7.97
2023-01-08T00:03:34.075Z,6.40
2023-01-08T00:06:03.140Z,6.87
2023-01-08T00:08:31.600Z,6.43
2023-01-08T00:10:59.245Z,7.23
2023-01-08T00:19:01.214Z,10.83
2023-01-08T00:21:29.751Z,6.43
2023-01-08T00:24:00.694Z,6.27
2023-01-08T00:26:28.416Z,9.87
2023-01-08T00:28:57.064Z,6.97
2023-01-08T00:31:26.157Z,5.10
2023-01-08T00:33:53.460Z,6.53
2023-01-08T00:41:54.922Z,7.13
2023-01-08T00:44:22.704Z,9.00
2023-01-08T00:46:49.964Z,8.43
2023-01-08T00:49:18.543Z,9.70
2023-01-08T00:51:46.580Z,7.73
2023-01-08T00:54:14.820Z,5.90
2023-01-08T00:56:42.667Z,6.33
2023-01-08T01:01:54.773Z,7.77
2023-01-08T01:04:22.437Z,5.30
2023-01-08T01:06:50.326Z,7.03
2023-01-08T01:09:17.733Z,5.40
2023-01-08T01:11:45.912Z,6.70
2023-01-08T01:14:15.025Z,6.43
2023-01-08T01:16:43.378Z,6.73
2023-01-08T01:21:51.982Z,7.53
2023-01-08T01:24:21.376Z,7.17
2023-01-08T01:26:48.898Z,6.30
2023-01-08T01:29:17.209Z,7.63
2023-01-08T01:31:44.504Z,7.93
2023-01-08T01:34:12.179Z,7.03
2023-01-08T01:36:39.652Z,7.97
2023-01-08T01:39:08.100Z,8.27
2023-01-08T01:49:45.007Z,7.37
2023-01-08T01:52:25.928Z,7.23
2023-01-08T01:54:55.613Z,10.23
2023-01-08T01:57:29.098Z,6.83
2023-01-08T02:00:02.874Z,9.83
2023-01-08T02:02:31.936Z,5.97
2023-01-08T02:05:04.245Z,9.10
2023-01-08T02:07:39.551Z,6.93
2023-01-08T02:12:52.960Z,6.10
2023-01-08T02:15:27.068Z,6.87
2023-01-08T02:17:59.499Z,7.00
2023-01-08T02:20:31.704Z,8.20
2023-01-08T02:23:22.377Z,6.20
2023-01-08T02:26:10.895Z,8.77
2023-01-08T02:28:43.762Z,5.20
2023-01-08T02:36:35.375Z,6.57
2023-01-08T02:39:14.930Z,6.07
2023-01-08T02:42:04.929Z,5.03
2023-01-08T02:44:42.282Z,5.00
2023-01-08T02:47:16.388Z,8.80
2023-01-08T02:49:48.201Z,8.93
2023-01-08T02:52:18.540Z,5.63
2023-01-08T02:58:00.165Z,5.53
2023-01-08T03:00:29.135Z,8.50
2023-01-08T03:03:04.763Z,6.07
2023-01-08T03:05:34.008Z,8.07
2023-01-08T03:08:02.791Z,7.27
2023-01-08T03:10:31.309Z,4.90
2023-01-08T03:13:04.207Z,7.33
2023-01-08T03:20:36.120Z,4.83
2023-01-08T03:23:06.739Z,6.60
2023-01-08T03:25:35.323Z,12.40
2023-01-08T03:28:08.437Z,6.90
2023-01-08T03:30:37.354Z,5.87
2023-01-08T03:33:06.928Z,5.77
2023-01-08T03:35:40.906Z,7.37
2023-01-08T03:38:14.714Z,7.83
2023-01-08T03:45:54.585Z,6.63
2023-01-08T03:48:23.368Z,7.67
2023-01-08T03:50:51.213Z,7.33
2023-01-08T03:53:18.655Z,27.37
2023-01-08T03:55:46.030Z,8.10
2023-01-08T03:58:13.567Z,8.70
2023-01-08T04:00:41.619Z,12.40
2023-01-08T04:06:15.396Z,9.73
2023-01-08T04:08:43.016Z,9.90
2023-01-08T04:11:10.776Z,11.63
2023-01-08T04:13:38.904Z,10.53
2023-01-08T04:16:07.717Z,10.93
2023-01-08T04:18:37.175Z,11.37
2023-01-08T04:21:04.912Z,9.90
2023-01-08T04:23:34.466Z,8.73
2023-01-08T04:30:42.083Z,14.07
2023-01-08T04:33:09.915Z,15.23
2023-01-08T04:35:37.681Z,12.73
2023-01-08T04:38:09.066Z,14.17
2023-01-08T04:40:37.218Z,11.30
2023-01-08T04:43:05.145Z,13.53
2023-01-08T04:45:32.332Z,9.87
2023-01-08T04:48:00.297Z,10.83
2023-01-08T04:55:29.033Z,9.80
2023-01-08T04:57:56.524Z,10.67
2023-01-08T05:00:23.932Z,10.37
2023-01-08T05:02:51.306Z,9.60
2023-01-08T05:05:20.963Z,11.47
2023-01-08T05:07:48.174Z,11.77
2023-01-08T05:10:15.982Z,12.03
2023-01-08T05:12:44.917Z,9.97
2023-01-08T05:20:23.433Z,12.10
2023-01-08T05:22:53.066Z,16.53
2023-01-08T05:25:23.897Z,24.47
2023-01-08T05:28:11.313Z,10.83
2023-01-08T05:30:45.138Z,74.50
2023-01-08T05:33:12.535Z,11.07
2023-01-08T05:35:41.622Z,10.57
2023-01-08T05:38:09.547Z,64.70
2023-01-08T05:43:17.766Z,81.23
2023-01-08T05:45:45.246Z,102.10
2023-01-08T05:48:12.392Z,31.57
2023-01-08T05:50:39.731Z,222.13
2023-01-08T05:53:08.183Z,69.83
2023-01-08T05:55:36.406Z,18.83
2023-01-08T05:58:04.211Z,11.90
2023-01-08T06:00:33.913Z,12.57
2023-01-08T06:09:04.044Z,10.80
2023-01-08T06:11:38.139Z,7.33
2023-01-08T06:14:13.344Z,6.80
2023-01-08T06:17:06.467Z,6.83
2023-01-08T06:19:46.223Z,5.27
2023-01-08T06:22:35.906Z,4.53
2023-01-08T06:25:41.416Z,4.63
2023-01-08T06:52:57.133Z,2.17
2023-01-08T06:59:56.035Z,3.77
2023-01-08T07:02:25.573Z,2.80
2023-01-08T07:04:52.866Z,4.83
2023-01-08T07:07:23.394Z,4.33
2023-01-08T07:09:50.245Z,2.97
2023-01-08T07:12:19.962Z,4.80
2023-01-08T07:14:49.653Z,4.50
2023-01-08T07:22:28.380Z,4.53
2023-01-08T07:24:55.941Z,4.63
2023-01-08T07:27:23.153Z,5.40
2023-01-08T07:29:50.154Z,4.10
2023-01-08T07:32:17.783Z,3.90
2023-01-08T07:34:46.565Z,3.90
2023-01-08T07:37:15.585Z,3.10
2023-01-08T07:45:23.070Z,3.93
2023-01-08T07:47:50.492Z,5.23
2023-01-08T07:50:17.506Z,4.03
2023-01-08T07:52:44.835Z,17.43
2023-01-08T07:55:11.993Z,18.03
2023-01-08T07:57:39.006Z,11.10
2023-01-08T08:00:14.953Z,8.70
2023-01-08T08:07:48.845Z,7.23
2023-01-08T08:10:19.780Z,10.53
2023-01-08T08:12:46.937Z,13.67
2023-01-08T08:15:15.584Z,8.67
2023-01-08T08:17:46.171Z,9.57
2023-01-08T08:20:13.546Z,7.40
2023-01-08T08:22:41.329Z,7.03
2023-01-08T08:30:13.238Z,55.83
2023-01-08T08:32:46.606Z,101.53
2023-01-08T08:35:13.894Z,221.40
2023-01-08T08:37:40.843Z,174.70
2023-01-08T08:40:11.912Z,256.40
2023-01-08T08:42:39.144Z,64.37
2023-01-08T08:45:07.734Z,157.20
2023-01-08T08:47:38.372Z,68.77
2023-01-08T08:52:45.283Z,204.37
2023-01-08T08:55:20.788Z,162.70
2023-01-08T08:57:48.783Z,133.20
2023-01-08T09:00:17.064Z,14.67
2023-01-08T09:02:44.332Z,69.53
2023-01-08T09:05:11.798Z,54.63
2023-01-08T09:07:45.278Z,30.40
2023-01-08T09:15:15.747Z,10.90
2023-01-08T09:17:43.171Z,18.43
2023-01-08T09:20:13.360Z,9.07
2023-01-08T09:22:45.583Z,6.37
2023-01-08T09:25:12.713Z,11.10
2023-01-08T09:27:39.796Z,6.17
2023-01-08T09:30:08.153Z,6.00
2023-01-08T09:35:56.045Z,4.27
2023-01-08T09:38:24.136Z,3.03
2023-01-08T09:41:03.737Z,3.77
2023-01-08T09:43:37.036Z,4.17
2023-01-08T09:46:09.497Z,4.50
2023-01-08T09:48:42.327Z,2.60
2023-01-08T09:51:17.716Z,3.77
2023-01-08T09:57:06.233Z,3.47
2023-01-08T09:59:33.947Z,4.57
2023-01-08T10:02:01.743Z,3.10
2023-01-08T10:04:30.790Z,3.13
2023-01-08T10:07:03.999Z,5.33
2023-01-08T10:09:33.422Z,4.93
2023-01-08T10:12:04.836Z,5.90
2023-01-08T10:14:37.091Z,6.03
2023-01-08T10:21:58.111Z,9.33
2023-01-08T10:24:41.536Z,6.70
2023-01-08T10:27:12.761Z,4.90
2023-01-08T10:29:43.620Z,6.53
2023-01-08T10:32:20.509Z,5.13
2023-01-08T10:34:51.830Z,5.90
2023-01-08T10:37:26.354Z,5.90
2023-01-08T10:43:10.876Z,4.20
2023-01-08T10:45:42.656Z,4.57
2023-01-08T10:48:20.870Z,3.57
2023-01-08T10:50:48.195Z,4.57
2023-01-08T10:53:34.813Z,4.60
2023-01-08T10:56:07.424Z,3.30
2023-01-08T10:58:43.688Z,5.23
2023-01-08T11:04:43.279Z,5.03
2023-01-08T11:07:21.197Z,3.57
2023-01-08T11:09:51.139Z,3.80
2023-01-08T11:12:34.796Z,4.17
2023-01-08T11:15:04.609Z,3.83
2023-01-08T11:17:34.195Z,4.27
2023-01-08T11:27:11.625Z,2.90
2023-01-08T11:29:45.144Z,2.47
2023-01-08T11:32:37.850Z,4.47
2023-01-08T11:35:13.324Z,4.17
2023-01-08T11:38:05.739Z,3.23
2023-01-08T11:40:40.390Z,3.77
2023-01-08T11:43:30.134Z,1.93
2023-01-08T11:51:35.579Z,2.90
2023-01-08T11:54:27.373Z,2.30
2023-01-08T11:57:17.966Z,4.47
2023-01-08T12:00:00.886Z,2.50
2023-01-08T12:02:48.499Z,3.77
2023-01-08T12:05:49.624Z,3.23
2023-01-08T12:14:10.278Z,3.40
2023-01-08T12:16:55.096Z,3.83
2023-01-08T12:19:37.365Z,3.70
2023-01-08T12:22:40.286Z,3.60
2023-01-08T12:25:34.024Z,7.43
2023-01-08T12:28:17.936Z,13.17
2023-01-08T12:34:47.147Z,4.63
2023-01-08T12:37:21.625Z,6.60
2023-01-08T12:39:56.191Z,6.10
2023-01-08T12:42:30.977Z,5.63
2023-01-08T12:45:02.530Z,7.90
2023-01-08T12:47:37.303Z,5.97
2023-01-08T12:50:25.686Z,4.67
2023-01-08T13:00:08.224Z,2.07
2023-01-08T13:02:48.765Z,2.77
2023-01-08T13:05:32.206Z,2.23
2023-01-08T13:08:02.576Z,1.90
2023-01-08T13:10:36.246Z,2.13
2023-01-08T13:13:06.871Z,7.30
2023-01-08T13:15:38.046Z,2.30
2023-01-08T13:18:19.568Z,2.23
2023-01-08T13:24:40.601Z,5.63
2023-01-08T13:27:28.472Z,2.07
2023-01-08T13:29:57.784Z,2.07
2023-01-08T13:33:02.170Z,1.90
2023-01-08T13:35:44.529Z,1.57
2023-01-08T13:38:30.502Z,1.80
2023-01-08T13:41:03.156Z,1.33
2023-01-08T13:48:43.317Z,2.30
2023-01-08T13:51:31.792Z,3.77
2023-01-08T13:54:19.671Z,1.73
2023-01-08T13:56:54.348Z,2.93
2023-01-08T13:59:38.057Z,1.77
2023-01-08T14:02:31.612Z,2.37
2023-01-08T14:05:06.104Z,1.97
2023-01-08T14:13:14.249Z,1.63
2023-01-08T14:15:42.017Z,5.67
2023-01-08T14:18:16.529Z,1.40
2023-01-08T14:20:49.155Z,3.00
2023-01-08T14:23:23.967Z,2.10
2023-01-08T14:25:52.328Z,2.13
2023-01-08T14:28:22.616Z,4.10
2023-01-08T14:34:11.284Z,3.00
2023-01-08T14:36:39.263Z,3.33
2023-01-08T14:39:12.466Z,3.10
2023-01-08T14:42:02.001Z,5.83
2023-01-08T14:44:38.020Z,1.70
2023-01-08T14:47:18.706Z,2.03
2023-01-08T14:49:51.823Z,2.67
2023-01-08T14:57:29.975Z,3.63
2023-01-08T15:00:01.253Z,2.83
2023-01-08T15:02:33.050Z,1.93
2023-01-08T15:05:15.629Z,1.77
2023-01-08T15:07:46.224Z,2.10
2023-01-08T15:11:00.565Z,4.37
2023-01-08T15:13:35.398Z,3.87
2023-01-08T15:21:38.351Z,1.50
2023-01-08T15:24:12.144Z,1.20
2023-01-08T15:26:43.403Z,3.27
2023-01-08T15:29:19.249Z,2.63
2023-01-08T15:31:51.162Z,1.53
2023-01-08T15:34:22.041Z,4.50
2023-01-08T15:36:50.061Z,2.27
2023-01-08T15:39:17.431Z,4.13
2023-01-08T15:44:54.754Z,2.60
2023-01-08T15:47:22.877Z,4.17
2023-01-08T15:49:50.633Z,2.43
2023-01-08T15:52:24.526Z,1.50
2023-01-08T15:54:55.314Z,1.97
2023-01-08T15:57:24.013Z,3.70
2023-01-08T15:59:53.225Z,5.27
2023-01-08T16:05:53.684Z,1.03
2023-01-08T16:08:26.713Z,5.60
2023-01-08T16:10:55.112Z,3.00
2023-01-08T16:13:28.317Z,3.93
2023-01-08T16:15:59.430Z,1.73
2023-01-08T16:18:28.665Z,1.27
2023-01-08T16:27:17.605Z,2.50
2023-01-08T16:29:54.385Z,4.40
2023-01-08T16:32:29.745Z,2.40
2023-01-08T16:34:58.125Z,2.30
2023-01-08T16:37:31.301Z,2.20
2023-01-08T16:40:10.336Z,6.00
2023-01-08T16:42:52.827Z,2.03
2023-01-08T16:48:19.045Z,2.93
2023-01-08T16:50:50.601Z,3.23
2023-01-08T16:53:31.714Z,1.53
2023-01-08T16:55:59.842Z,3.23
2023-01-08T16:58:28.914Z,1.53
2023-01-08T17:01:02.975Z,1.40
2023-01-08T17:03:38.472Z,1.30
2023-01-08T17:11:09.630Z,3.00
2023-01-08T17:13:37.590Z,2.60
2023-01-08T17:16:08.086Z,1.27
2023-01-08T17:18:38.366Z,1.60
2023-01-08T17:21:06.532Z,6.10
2023-01-08T17:23:34.270Z,3.80
2023-01-08T17:26:08.611Z,2.50
2023-01-08T17:28:40.683Z,2.43
2023-01-08T17:35:21.155Z,5.73
2023-01-08T17:37:48.667Z,2.60
2023-01-08T17:40:17.666Z,5.37
2023-01-08T17:42:45.546Z,3.37
2023-01-08T17:45:13.097Z,3.27
2023-01-08T17:47:42.863Z,3.50
2023-01-08T17:50:12.835Z,3.17
2023-01-08T17:57:47.015Z,3.43
2023-01-08T18:00:16.078Z,3.87
2023-01-08T18:02:45.328Z,3.47
2023-01-08T18:05:13.426Z,3.33
2023-01-08T18:07:41.077Z,4.77
2023-01-08T18:10:10.663Z,3.20
2023-01-08T18:12:44.055Z,5.03
2023-01-08T18:15:16.658Z,4.03
2023-01-08T18:20:21.657Z,7.83
2023-01-08T18:22:51.704Z,3.53
2023-01-08T18:25:29.239Z,5.73
2023-01-08T18:27:59.947Z,4.47
2023-01-08T18:30:32.194Z,5.77
2023-01-08T18:33:02.537Z,7.40
2023-01-08T18:35:34.175Z,6.20
2023-01-08T18:38:05.199Z,5.00
2023-01-08T18:44:54.864Z,10.97
2023-01-08T18:47:24.994Z,12.77
2023-01-08T18:49:54.700Z,13.07
2023-01-08T18:52:25.108Z,12.00
2023-01-08T18:54:56.623Z,11.43
2023-01-08T18:57:24.905Z,12.87
2023-01-08T18:59:55.025Z,13.03
2023-01-08T19:09:52.845Z,11.77
2023-01-08T19:12:20.403Z,12.97
2023-01-08T19:14:52.189Z,9.77
2023-01-08T19:17:20.215Z,18.00
2023-01-08T19:19:47.805Z,10.93
2023-01-08T19:22:24.125Z,10.60
2023-01-08T19:24:56.378Z,9.87
2023-01-08T19:27:26.615Z,12.00
2023-01-08T19:34:56.766Z,6.70
2023-01-08T19:37:27.704Z,8.27
2023-01-08T19:40:01.221Z,10.13
2023-01-08T19:42:47.518Z,5.70
2023-01-08T19:45:21.288Z,6.43
2023-01-08T19:47:49.182Z,6.00
2023-01-08T19:50:21.986Z,7.97
2023-01-08T19:55:30.444Z,7.13
2023-01-08T19:58:03.340Z,7.43
2023-01-08T20:00:36.776Z,7.80
2023-01-08T20:03:04.772Z,9.07
2023-01-08T20:05:32.839Z,9.30
2023-01-08T20:08:02.596Z,13.33
2023-01-08T20:10:34.871Z,17.57
2023-01-08T20:21:27.042Z,16.43
2023-01-08T20:24:01.803Z,17.70
2023-01-08T20:26:34.247Z,17.40
2023-01-08T20:29:10.607Z,14.83
2023-01-08T20:31:41.793Z,19.87
2023-01-08T20:34:15.734Z,18.07
2023-01-08T20:36:52.023Z,20.67
2023-01-08T20:39:20.242Z,18.37
2023-01-08T20:46:57.697Z,21.57
2023-01-08T20:49:26.287Z,24.93
2023-01-08T20:51:59.263Z,23.70
2023-01-08T20:54:28.962Z,23.57
2023-01-08T20:56:58.071Z,22.33
2023-01-08T20:59:26.390Z,20.07
2023-01-08T21:01:54.427Z,18.87
2023-01-08T21:07:13.100Z,21.93
2023-01-08T21:09:41.885Z,19.60
2023-01-08T21:12:10.795Z,22.40
2023-01-08T21:14:39.465Z,25.40
2023-01-08T21:17:06.914Z,22.40
2023-01-08T21:19:39.432Z,20.83
2023-01-08T21:22:07.135Z,23.57
2023-01-08T21:24:35.424Z,21.77
2023-01-08T21:32:03.518Z,18.47
2023-01-08T21:34:38.862Z,22.17
2023-01-08T21:37:08.257Z,20.73
2023-01-08T21:39:36.533Z,23.13
2023-01-08T21:42:22.986Z,22.30
2023-01-08T21:45:10.873Z,24.63
2023-01-08T21:47:39.007Z,22.17
2023-01-08T21:50:08.845Z,20.23
2023-01-08T21:58:26.884Z,19.43
2023-01-08T22:00:57.790Z,18.07
2023-01-08T22:03:29.451Z,19.03
2023-01-08T22:06:02.782Z,18.13
2023-01-08T22:08:31.802Z,14.80
2023-01-08T22:10:59.475Z,18.20
2023-01-08T22:13:28.776Z,17.60
2023-01-08T22:16:02.889Z,18.23
2023-01-08T22:21:25.139Z,17.90
2023-01-08T22:23:53.420Z,17.00
2023-01-08T22:26:21.304Z,17.40
2023-01-08T22:28:49.394Z,16.20
2023-01-08T22:31:17.525Z,19.57
2023-01-08T22:33:45.287Z,17.80
2023-01-08T22:36:14.206Z,15.63
2023-01-08T22:38:43.098Z,17.23
2023-01-08T22:43:58.802Z,15.63
2023-01-08T22:46:26.755Z,12.10
2023-01-08T22:48:54.572Z,14.07
2023-01-08T22:51:27.110Z,15.33
2023-01-08T22:53:55.645Z,13.57
2023-01-08T22:56:23.559Z,12.83
2023-01-08T22:58:50.763Z,18.70
2023-01-08T23:01:22.927Z,12.77
2023-01-08T23:03:51.620Z,9.57
2023-01-08T23:11:25.678Z,21.17
2023-01-08T23:13:55.227Z,23.63
2023-01-08T23:16:24.950Z,24.70
2023-01-08T23:18:56.581Z,14.90
2023-01-08T23:21:25.485Z,32.23
2023-01-08T23:23:53.310Z,40.27
2023-01-08T23:26:25.991Z,71.97
2023-01-08T23:28:55.625Z,79.47
2023-01-08T23:37:13.356Z,68.13
2023-01-08T23:39:44.534Z,33.40
2023-01-08T23:42:22.728Z,29.23
2023-01-08T23:45:03.835Z,53.83
2023-01-08T23:47:33.058Z,21.97
2023-01-08T23:50:07.187Z,12.30
2023-01-08T23:53:01.663Z,16.13
2023-01-08T23:55:48.494Z,16.70
2023-01-08T23:58:19.612Z,15.07
